Terminal Aerodrome Forecast
Issued by NWS

Home | Current Version | Previous Version | Text Only | Print | Product List | Glossary On
Versions: 1 2 3 4 5 6 7 8 9 10 11 12 13 14 15
000
FTUS46 KMTR 271700
TAFOAK
TAF
KOAK 271731Z 2718/2824 15003KT P6SM FEW070 OVC100
     FM272000 21006KT P6SM SCT050 BKN100
     FM280200 00000KT P6SM BKN100
     FM280500 05003KT P6SM BKN150
     FM282000 27004KT P6SM SCT150=

USA.gov is the U.S. government's official web portal to all federal, state and local government web resources and services.